Time;durP1;ratioP1;P1;durP2;ratioP2;P2;SDS_P1;SDS_P2;PMS_P1;PMS_P2;Temp;Humidity;BMP_temperature;BMP_pressure;BME280_temperature;BME280_humidity;BME280_pressure;Samples;Min_cycle;Max_cycle;Signal;HPM_P1;HPM_P2
2022/11/14 00:01:11;;;;;;;3.78;3.65;;;9.40;99.90;;;;;;5021924;28;20018;-76
2022/11/14 00:04:06;;;;;;;3.13;2.97;;;9.30;99.90;;;;;;5038731;28;20025;-77
2022/11/14 00:06:35;;;;;;;1.88;1.77;;;9.30;99.90;;;;;;5039402;28;20078;-76
2022/11/14 00:09:01;;;;;;;0.60;0.60;;;;;;;;;;5045999;23;20026;-78
2022/11/14 00:11:32;;;;;;;0.30;0.30;;;8.30;99.90;;;;;;5018454;28;20041;-76
2022/11/14 00:13:58;;;;;;;0.88;0.85;;;9.30;99.90;;;;;;5037659;28;20037;-76
2022/11/14 00:16:23;;;;;;;5.32;5.00;;;9.30;99.90;;;;;;5038612;28;20018;-76
2022/11/14 00:18:51;;;;;;;1.40;1.38;;;9.30;99.90;;;;;;5037343;28;20049;-76
2022/11/14 00:21:33;;;;;;;;;;;9.30;99.90;;;;;;5036847;28;20046;-76
2022/11/14 00:24:02;;;;;;;2.47;2.38;;;9.30;99.90;;;;;;5037097;28;20005;-76
2022/11/14 00:26:28;;;;;;;4.40;4.20;;;9.30;99.90;;;;;;5037164;28;20033;-76
2022/11/14 00:29:14;;;;;;;0.20;0.20;;;9.30;99.90;;;;;;5038072;28;20010;-75
2022/11/14 00:31:40;;;;;;;1.65;1.63;;;9.20;99.90;;;;;;5036349;28;20024;-76
2022/11/14 00:34:10;;;;;;;12.00;11.48;;;9.20;99.90;;;;;;5037917;28;20069;-76
2022/11/14 00:36:36;;;;;;;3.78;3.50;;;9.10;99.90;;;;;;5038623;28;20053;-76
2022/11/14 00:39:22;;;;;;;8.55;8.20;;;9.20;99.90;;;;;;5037365;28;20014;-76
2022/11/14 00:41:51;;;;;;;1.05;1.05;;;9.20;99.90;;;;;;5037571;28;20002;-75
2022/11/14 00:44:16;;;;;;;2.97;2.78;;;9.20;99.90;;;;;;5042752;23;20022;-76
2022/11/14 00:46:42;;;;;;;0.30;0.30;;;9.20;99.90;;;;;;5021005;28;20053;-76
2022/11/14 00:51:38;;;;;;;0.93;0.93;;;9.30;99.90;;;;;;5033674;28;20040;-78
2022/11/14 00:54:04;;;;;;;7.78;7.40;;;9.20;99.90;;;;;;4994721;28;20124;-79
2022/11/14 00:56:33;;;;;;;0.20;0.20;;;9.10;99.90;;;;;;4997229;28;20097;-79
2022/11/14 00:59:02;;;;;;;13.73;12.38;;;9.10;99.90;;;;;;4968875;28;20288;-75
2022/11/14 01:08:17;;;;;;;12.65;11.70;;;8.40;99.90;;;;;;5464102;23;20057;-77
2022/11/14 01:10:46;;;;;;;10.23;9.75;;;9.10;99.90;;;;;;4998028;28;20038;-77
2022/11/14 01:13:14;;;;;;;1.13;1.13;;;9.10;99.90;;;;;;5010194;28;20022;-77
2022/11/14 01:15:45;;;;;;;1.35;1.35;;;9.10;99.90;;;;;;4990225;28;20030;-77
2022/11/14 01:18:14;;;;;;;4.07;3.90;;;9.10;99.90;;;;;;5008521;28;20026;-77
2022/11/14 01:20:41;;;;;;;0.17;0.17;;;9.10;99.90;;;;;;5009940;28;20531;-77
2022/11/14 01:23:09;;;;;;;0.13;0.13;;;9.10;99.90;;;;;;5010189;28;20041;-75
2022/11/14 01:25:58;;;;;;;4.10;3.92;;;9.00;99.90;;;;;;5036394;28;20006;-75
2022/11/14 01:28:26;;;;;;;0.20;0.20;;;9.00;99.90;;;;;;5038331;28;20006;-76
2022/11/14 01:30:52;;;;;;;14.65;13.48;;;9.00;99.90;;;;;;5038672;28;20475;-77
2022/11/14 01:33:18;;;;;;;0.30;0.30;;;8.90;99.90;;;;;;5037430;28;20014;-75
2022/11/14 01:35:44;;;;;;;0.60;0.60;;;8.90;99.90;;;;;;5037988;28;20320;-77
2022/11/14 01:38:23;;;;;;;0.40;0.40;;;8.90;99.90;;;;;;5037984;28;20010;-76
2022/11/14 01:40:48;;;;;;;1.98;1.90;;;8.80;99.90;;;;;;5037411;28;20061;-76
2022/11/14 01:43:40;;;;;;;1.77;1.77;;;8.80;99.90;;;;;;5037105;28;20022;-76
2022/11/14 01:46:18;;;;;;;3.70;3.50;;;8.80;99.90;;;;;;5038032;28;20026;-76
2022/11/14 01:49:05;;;;;;;1.02;1.02;;;8.70;99.90;;;;;;5037830;28;20036;-76
2022/11/14 01:52:00;;;;;;;0.20;0.20;;;8.70;99.90;;;;;;5035235;28;20018;-75
2022/11/14 01:54:32;;;;;;;5.32;5.07;;;8.60;99.90;;;;;;5036736;28;20002;-80
2022/11/14 01:57:17;;;;;;;1.75;1.67;;;8.60;99.90;;;;;;5037170;28;20013;-77
2022/11/14 01:59:53;;;;;;;9.05;8.30;;;8.60;99.90;;;;;;5036745;28;20002;-78
2022/11/14 02:02:42;;;;;;;30.05;27.73;;;8.50;99.90;;;;;;5037266;28;20056;-75
2022/11/14 02:05:51;;;;;;;7.20;6.57;;;8.50;99.90;;;;;;5037291;28;20085;-76
2022/11/14 02:08:36;;;;;;;9.80;9.27;;;8.40;99.90;;;;;;5035431;28;20048;-78
2022/11/14 02:11:10;;;;;;;3.40;3.30;;;8.40;99.90;;;;;;5035937;28;20056;-76
2022/11/14 02:16:12;;;;;;;21.30;19.85;;;;;;;;;;5073145;23;20053;-83
2022/11/14 02:18:37;;;;;;;0.57;0.57;;;8.30;99.90;;;;;;5019974;28;20414;-78
2022/11/14 02:21:12;;;;;;;0.10;0.10;;;8.30;99.90;;;;;;5019205;28;20029;-77
2022/11/14 02:23:38;;;;;;;3.05;2.90;;;8.30;99.90;;;;;;5019485;28;20030;-80
2022/11/14 02:26:04;;;;;;;0.13;0.13;;;8.30;99.90;;;;;;5036561;28;20037;-78
2022/11/14 02:28:42;;;;;;;2.15;2.05;;;8.20;99.90;;;;;;5034165;28;20061;-82
2022/11/14 02:31:09;;;;;;;0.73;0.73;;;8.20;99.90;;;;;;5036099;28;20057;-77
2022/11/14 02:33:35;;;;;;;7.45;7.07;;;8.20;99.90;;;;;;5035240;28;20061;-77
2022/11/14 02:36:13;;;;;;;0.50;0.50;;;8.10;99.90;;;;;;5036004;28;20082;-77
2022/11/14 02:38:38;;;;;;;0.10;0.10;;;8.10;99.90;;;;;;5034936;28;20061;-77
2022/11/14 02:41:24;;;;;;;3.80;3.60;;;8.10;99.90;;;;;;5036677;28;20025;-79
2022/11/14 02:44:10;;;;;;;0.75;0.75;;;8.00;99.90;;;;;;5017826;28;20034;-78
2022/11/14 02:46:41;;;;;;;14.07;12.88;;;8.00;99.90;;;;;;5018010;28;20018;-77
2022/11/14 02:49:27;;;;;;;2.60;2.55;;;8.00;99.90;;;;;;5036347;28;20296;-76
2022/11/14 02:52:16;;;;;;;0.28;0.28;;;8.00;99.90;;;;;;5025379;28;20022;-78
2022/11/14 02:54:45;;;;;;;2.22;2.15;;;8.10;99.90;;;;;;5036203;28;20041;-77
2022/11/14 02:57:31;;;;;;;17.00;6.07;;;8.00;99.90;;;;;;5034595;28;20046;-77
2022/11/14 03:00:30;;;;;;;0.10;0.10;;;8.00;99.90;;;;;;5034483;28;20049;-77
2022/11/14 03:02:55;;;;;;;0.35;0.35;;;8.00;99.90;;;;;;5033870;28;20532;-79
2022/11/14 03:05:21;;;;;;;0.10;0.10;;;8.00;99.90;;;;;;5041386;28;20014;-80
2022/11/14 03:07:47;;;;;;;0.20;0.20;;;8.00;99.90;;;;;;5022662;28;20053;-77
2022/11/14 03:10:29;;;;;;;1.50;1.50;;;7.90;99.90;;;;;;5039313;28;20366;-77
2022/11/14 03:15:36;;;;;;;0.28;0.28;;;7.90;99.90;;;;;;523792;26;20324;-78
2022/11/14 03:18:11;;;;;;;1.17;1.17;;;7.90;99.90;;;;;;5015916;28;20039;-81
2022/11/14 03:20:39;;;;;;;13.70;12.88;;;7.90;99.90;;;;;;5020246;28;20014;-78
2022/11/14 03:23:08;;;;;;;2.28;2.17;;;7.80;99.90;;;;;;5019423;28;20034;-77
2022/11/14 03:25:43;;;;;;;1.27;1.25;;;7.80;99.90;;;;;;5018226;28;20094;-77
2022/11/14 03:28:21;;;;;;;0.10;0.10;;;7.70;99.90;;;;;;5018385;28;20003;-81
2022/11/14 03:31:07;;;;;;;0.28;0.28;;;7.70;99.90;;;;;;5016921;28;20107;-77
2022/11/14 03:33:34;;;;;;;0.10;0.10;;;7.60;99.90;;;;;;5018414;28;20007;-78
2022/11/14 03:36:01;;;;;;;0.20;0.20;;;7.70;99.90;;;;;;5019519;28;20025;-77
2022/11/14 03:38:44;;;;;;;2.85;2.75;;;7.60;99.90;;;;;;5020358;28;20019;-77
2022/11/14 03:41:16;;;;;;;0.20;0.20;;;7.60;99.90;;;;;;5019080;28;20038;-78
2022/11/14 03:43:50;;;;;;;0.15;0.15;;;7.50;99.90;;;;;;5019204;28;20035;-77
2022/11/14 03:46:16;;;;;;;13.75;13.20;;;7.50;99.90;;;;;;5019229;28;20003;-80
2022/11/14 03:48:50;;;;;;;1.15;1.15;;;7.50;99.90;;;;;;5019400;28;20046;-77
2022/11/14 03:51:15;;;;;;;;;;;7.50;99.90;;;;;;5018259;28;20061;-77
2022/11/14 03:53:47;;;;;;;0.10;0.10;;;7.40;99.90;;;;;;5018254;28;19906;-78
2022/11/14 03:58:48;;;;;;;0.10;0.10;;;7.30;99.90;;;;;;5014049;23;20047;-77
2022/11/14 04:01:16;;;;;;;8.02;7.65;;;7.30;99.90;;;;;;5106267;23;20066;-78
2022/11/14 04:03:41;;;;;;;34.72;32.88;;;7.20;99.90;;;;;;4994610;28;20110;-77
2022/11/14 04:06:07;;;;;;;0.10;0.10;;;7.30;99.90;;;;;;4998472;28;20038;-77
2022/11/14 04:08:35;;;;;;;0.10;0.10;;;7.30;99.90;;;;;;4990663;28;20506;-77
2022/11/14 04:11:03;;;;;;;0.20;0.20;;;7.20;99.90;;;;;;4976173;28;20038;-78
2022/11/14 04:13:32;;;;;;;0.10;0.10;;;7.20;99.90;;;;;;4976114;28;20019;-78
2022/11/14 04:15:59;;;;;;;0.65;0.65;;;6.70;99.90;;;;;;4976577;28;20031;-77
2022/11/14 04:18:32;;;;;;;6.15;5.82;;;7.10;99.90;;;;;;4975387;28;20030;-77
2022/11/14 04:20:58;;;;;;;25.92;24.70;;;7.10;99.90;;;;;;4976750;28;20232;-78
2022/11/14 04:23:24;;;;;;;5.63;5.28;;;7.00;99.90;;;;;;4979330;28;20023;-77
2022/11/14 04:26:12;;;;;;;0.00;0.00;;;7.10;99.90;;;;;;5000131;28;20049;-76
2022/11/14 04:28:41;;;;;;;0.05;0.05;;;7.00;99.90;;;;;;5000927;28;20051;-76
2022/11/14 04:31:27;;;;;;;0.03;0.03;;;7.00;99.90;;;;;;4998932;28;20059;-78
2022/11/14 04:33:53;;;;;;;0.10;0.10;;;7.00;99.90;;;;;;5000001;28;20011;-77
2022/11/14 04:36:18;;;;;;;0.00;0.00;;;7.00;99.90;;;;;;4999284;28;20327;-78
2022/11/14 04:38:44;;;;;;;0.10;0.10;;;6.90;99.90;;;;;;4993579;28;20332;-77
2022/11/14 04:41:10;;;;;;;0.45;0.45;;;6.90;99.90;;;;;;4974227;28;20050;-77
2022/11/14 04:43:36;;;;;;;0.38;0.38;;;6.90;99.90;;;;;;4974761;28;20035;-77
2022/11/14 04:46:02;;;;;;;0.10;0.10;;;6.90;99.90;;;;;;4973276;28;20030;-77
2022/11/14 04:48:28;;;;;;;3.70;3.50;;;6.80;99.90;;;;;;4972427;28;20022;-77
2022/11/14 04:50:53;;;;;;;3.97;3.75;;;6.80;99.90;;;;;;4972750;28;20167;-77
2022/11/14 04:53:19;;;;;;;0.10;0.10;;;6.80;99.90;;;;;;4975655;28;20174;-77
2022/11/14 04:55:48;;;;;;;0.10;0.10;;;6.80;99.90;;;;;;4997681;28;20035;-77
2022/11/14 04:58:16;;;;;;;0.20;0.17;;;6.70;99.90;;;;;;4998463;28;20075;-77
2022/11/14 05:00:43;;;;;;;0.77;0.77;;;6.70;99.90;;;;;;4998478;28;20015;-76
2022/11/14 05:03:08;;;;;;;20.42;18.60;;;6.60;99.90;;;;;;5013542;28;20135;-77
2022/11/14 05:05:59;;;;;;;1.38;1.38;;;6.70;99.90;;;;;;5017545;28;20543;-81
2022/11/14 05:08:47;;;;;;;0.38;0.38;;;6.70;99.90;;;;;;5016972;28;20030;-79
2022/11/14 05:11:15;;;;;;;2.35;2.25;;;6.70;99.90;;;;;;5015334;28;20037;-77
2022/11/14 05:13:43;;;;;;;0.10;0.10;;;6.70;99.90;;;;;;5015751;28;20042;-79
2022/11/14 05:16:12;;;;;;;0.90;0.90;;;6.70;99.90;;;;;;5016900;28;20019;-77
2022/11/14 05:18:38;;;;;;;38.38;36.72;;;;;;;;;;5012742;28;20018;-80
2022/11/14 05:21:06;;;;;;;0.10;0.10;;;6.70;99.90;;;;;;5015514;28;20014;-78
2022/11/14 05:23:32;;;;;;;5.82;5.57;;;6.70;99.90;;;;;;5014387;28;20045;-77
2022/11/14 05:26:08;;;;;;;2.22;2.13;;;6.60;99.90;;;;;;5007979;28;20042;-77
2022/11/14 05:28:36;;;;;;;0.90;0.90;;;6.60;99.90;;;;;;5008451;28;20046;-76
2022/11/14 05:31:07;;;;;;;15.70;15.05;;;6.50;99.90;;;;;;5007452;28;20014;-79
2022/11/14 05:33:38;;;;;;;0.75;0.75;;;6.50;99.90;;;;;;5011902;28;20009;-76
2022/11/14 05:36:12;;;;;;;0.10;0.10;;;6.50;99.90;;;;;;5013509;28;20014;-77
2022/11/14 05:38:46;;;;;;;0.47;0.47;;;6.50;99.90;;;;;;5016328;28;20026;-77
2022/11/14 05:41:18;;;;;;;8.75;8.15;;;6.50;99.90;;;;;;5017116;28;20007;-78
2022/11/14 05:43:50;;;;;;;0.85;0.85;;;6.50;99.90;;;;;;5013048;28;20050;-77
2022/11/14 05:46:19;;;;;;;4.47;4.28;;;6.50;99.90;;;;;;5014917;28;20030;-78
2022/11/14 05:48:45;;;;;;;0.52;0.52;;;6.50;99.90;;;;;;5011311;28;20054;-76
2022/11/14 05:51:15;;;;;;;4.55;4.35;;;6.50;99.90;;;;;;5012452;28;20074;-76
2022/11/14 05:53:42;;;;;;;0.05;0.05;;;6.50;99.90;;;;;;5016965;28;20022;-76
2022/11/14 05:56:14;;;;;;;0.00;0.00;;;6.50;99.90;;;;;;5017438;28;20037;-78
2022/11/14 05:58:40;;;;;;;1.00;1.00;;;6.50;99.90;;;;;;5009632;28;20042;-76
2022/11/14 06:01:54;;;;;;;0.05;0.05;;;6.40;99.90;;;;;;5009217;28;20038;-77
2022/11/14 06:04:46;;;;;;;0.70;0.70;;;6.40;99.90;;;;;;5035102;28;20050;-75
2022/11/14 06:07:24;;;;;;;0.00;0.00;;;6.40;99.90;;;;;;5034936;28;20017;-76
2022/11/14 06:09:53;;;;;;;0.10;0.10;;;6.50;99.90;;;;;;5025944;28;20089;-76
2022/11/14 06:12:19;;;;;;;2.38;2.28;;;4.80;99.90;;;;;;4995499;28;20026;-76
2022/11/14 06:14:44;;;;;;;0.75;0.75;;;6.50;99.90;;;;;;5011609;28;20037;-77
2022/11/14 06:17:10;;;;;;;7.13;6.80;;;6.50;99.90;;;;;;5013391;28;20546;-76
2022/11/14 06:19:36;;;;;;;2.55;2.45;;;6.50;99.90;;;;;;5013601;28;20022;-76
2022/11/14 06:22:02;;;;;;;0.00;0.00;;;6.60;99.90;;;;;;5013044;28;20059;-76
2022/11/14 06:24:28;;;;;;;0.05;0.05;;;6.70;99.90;;;;;;4995917;28;20231;-75
2022/11/14 06:27:00;;;;;;;0.10;0.10;;;6.70;99.90;;;;;;5027541;28;20061;-76
2022/11/14 06:29:26;;;;;;;0.20;0.20;;;6.70;99.90;;;;;;5026312;28;20030;-76
2022/11/14 06:31:54;;;;;;;0.43;0.43;;;6.80;99.90;;;;;;5023217;28;20034;-76
2022/11/14 06:34:23;;;;;;;6.97;4.38;;;6.90;99.90;;;;;;5027432;28;20038;-76
2022/11/14 06:36:52;;;;;;;0.30;0.30;;;6.90;99.90;;;;;;5028430;28;20467;-76
2022/11/14 06:39:26;;;;;;;1.25;1.25;;;6.90;99.90;;;;;;5029255;28;20066;-75
2022/11/14 06:42:17;;;;;;;4.80;4.60;;;7.00;99.90;;;;;;5027925;28;20002;-75
2022/11/14 06:44:58;;;;;;;16.20;8.13;;;7.00;99.90;;;;;;4965423;28;20073;-76
2022/11/14 06:47:24;;;;;;;0.10;0.10;;;7.20;99.90;;;;;;4963244;29;20039;-76
2022/11/14 06:49:51;;;;;;;1.95;1.85;;;7.30;99.90;;;;;;4963619;28;20739;-76
2022/11/14 06:52:24;;;;;;;3.53;3.40;;;7.40;99.90;;;;;;4947909;29;20059;-80
2022/11/14 06:55:06;;;;;;;24.48;23.48;;;7.50;99.90;;;;;;5344778;23;20608;-77
2022/11/14 06:57:32;;;;;;;0.28;0.28;;;7.60;99.90;;;;;;5006711;28;20022;-77
2022/11/14 06:59:57;;;;;;;25.13;7.45;;;7.60;99.90;;;;;;5006724;28;20037;-77
2022/11/14 07:02:25;;;;;;;0.10;0.10;;;7.60;99.90;;;;;;5021187;28;20014;-76
2022/11/14 07:05:03;;;;;;;0.88;0.85;;;7.60;99.90;;;;;;5021781;28;20006;-77
2022/11/14 07:07:29;;;;;;;0.17;0.17;;;7.80;99.90;;;;;;5022591;28;20026;-76
2022/11/14 07:09:57;;;;;;;0.17;0.17;;;7.80;99.90;;;;;;5023059;28;20212;-76
2022/11/14 07:12:31;;;;;;;1.40;1.13;;;7.90;99.90;;;;;;5023288;28;20049;-77
2022/11/14 07:14:58;;;;;;;0.73;0.73;;;8.00;99.90;;;;;;5023070;28;20034;-77
2022/11/14 07:17:27;;;;;;;27.08;20.50;;;8.00;99.90;;;;;;5006751;28;20034;-77
2022/11/14 07:19:53;;;;;;;0.35;0.35;;;8.00;99.90;;;;;;5023711;28;20033;-76
2022/11/14 07:22:21;;;;;;;0.10;0.10;;;8.00;99.90;;;;;;5008631;28;20034;-77
2022/11/14 07:24:48;;;;;;;0.20;0.20;;;8.10;99.90;;;;;;5021584;28;20074;-76
2022/11/14 07:27:14;;;;;;;10.52;10.07;;;8.10;99.90;;;;;;5019941;28;20053;-75
2022/11/14 07:29:40;;;;;;;0.20;0.20;;;8.10;99.90;;;;;;5003307;28;20026;-76
2022/11/14 07:32:06;;;;;;;0.43;0.43;;;8.20;99.90;;;;;;5017006;28;20025;-75
2022/11/14 07:34:31;;;;;;;0.60;0.60;;;8.20;99.90;;;;;;5014884;28;20062;-77
2022/11/14 07:37:17;;;;;;;1.48;1.48;;;8.30;99.90;;;;;;5017149;28;20542;-76
2022/11/14 07:39:43;;;;;;;1.13;1.13;;;8.40;99.90;;;;;;5018455;28;20032;-76
2022/11/14 07:42:15;;;;;;;0.10;0.10;;;8.60;99.90;;;;;;5019181;28;20026;-76
2022/11/14 07:44:40;;;;;;;1.98;1.90;;;8.70;99.90;;;;;;5016962;28;20030;-75
2022/11/14 07:47:06;;;;;;;0.20;0.20;;;8.60;99.90;;;;;;5004213;28;20026;-75
2022/11/14 07:49:36;;;;;;;0.10;0.10;;;8.70;99.90;;;;;;5013402;28;20022;-76
2022/11/14 07:52:02;;;;;;;12.27;6.30;;;5.70;99.90;;;;;;5017439;28;20708;-75
2022/11/14 07:54:28;;;;;;;2.03;1.95;;;8.60;99.90;;;;;;5024259;28;20049;-75
2022/11/14 07:56:54;;;;;;;5.03;4.85;;;8.60;99.90;;;;;;5026431;28;20092;-75
2022/11/14 07:59:19;;;;;;;3.67;3.47;;;8.60;99.90;;;;;;5029806;28;20053;-76
2022/11/14 08:01:45;;;;;;;16.20;15.63;;;8.70;99.90;;;;;;5029656;28;20010;-76
2022/11/14 08:04:14;;;;;;;0.40;0.40;;;8.70;99.90;;;;;;5028018;28;20021;-76
2022/11/14 08:06:40;;;;;;;5.68;5.38;;;8.80;99.90;;;;;;5028707;28;20057;-76
2022/11/14 08:09:06;;;;;;;4.20;3.97;;;8.80;99.90;;;;;;5028411;28;20018;-76
2022/11/14 08:11:48;;;;;;;;;;;8.90;99.90;;;;;;5015824;28;20040;-77
2022/11/14 08:14:17;;;;;;;;;;;9.10;99.90;;;;;;5013816;28;19996;-76
2022/11/14 08:16:44;;;;;;;0.10;0.10;;;9.10;99.90;;;;;;5013573;28;19909;-76
2022/11/14 08:19:10;;;;;;;0.93;0.93;;;9.20;99.90;;;;;;4995333;28;20022;-76
2022/11/14 08:21:35;;;;;;;5.03;4.85;;;9.20;99.90;;;;;;5011888;28;20021;-76
2022/11/14 08:24:01;;;;;;;0.40;0.40;;;9.10;99.90;;;;;;5012580;28;20097;-76
2022/11/14 08:26:29;;;;;;;1.83;1.75;;;9.20;99.90;;;;;;5008812;28;20037;-75
2022/11/14 08:28:58;;;;;;;4.93;4.72;;;9.20;99.90;;;;;;5007040;28;20022;-76
2022/11/14 08:31:27;;;;;;;0.43;0.43;;;9.20;99.90;;;;;;5005697;28;20181;-76
2022/11/14 08:33:53;;;;;;;1.38;1.38;;;9.20;99.90;;;;;;4990014;28;20042;-76
2022/11/14 08:36:19;;;;;;;0.65;0.65;;;9.30;99.90;;;;;;5008307;28;20061;-76
2022/11/14 08:38:44;;;;;;;1.60;1.50;;;9.40;99.90;;;;;;5006821;28;20029;-76
2022/11/14 08:41:10;;;;;;;16.67;15.65;;;9.50;99.90;;;;;;5010023;28;20010;-76
2022/11/14 08:43:36;;;;;;;0.55;0.55;;;9.60;99.90;;;;;;5009026;28;20029;-76
2022/11/14 08:56:37;;;;;;;0.25;0.25;;;10.10;99.90;;;;;;5318979;23;20046;-76
2022/11/14 08:59:04;;;;;;;2.15;2.05;;;10.30;99.90;;;;;;4978097;28;20031;-75
2022/11/14 09:01:31;;;;;;;1.88;1.80;;;10.30;99.90;;;;;;4978796;28;20043;-75
2022/11/14 09:03:59;;;;;;;0.30;0.30;;;10.40;99.90;;;;;;4977570;28;20030;-76
2022/11/14 09:06:25;;;;;;;1.10;1.10;;;10.40;99.90;;;;;;4977547;28;20019;-75
2022/11/14 09:09:11;;;;;;;4.07;3.88;;;10.50;99.90;;;;;;4987538;28;20609;-75
2022/11/14 09:11:37;;;;;;;3.90;3.70;;;10.60;99.90;;;;;;4991097;28;20023;-75
2022/11/14 09:14:12;;;;;;;13.90;12.85;;;10.70;99.90;;;;;;5009389;23;20045;-75
2022/11/14 09:16:38;;;;;;;9.65;9.18;;;10.90;99.90;;;;;;4992920;28;20025;-76
2022/11/14 09:19:04;;;;;;;0.88;0.88;;;11.00;99.90;;;;;;5028217;23;20050;-89
2022/11/14 09:21:30;;;;;;;1.10;1.10;;;11.00;99.90;;;;;;5006106;28;20109;-76
2022/11/14 09:23:57;;;;;;;1.33;1.30;;;11.20;99.90;;;;;;5024417;28;20137;-78
2022/11/14 09:26:23;;;;;;;2.22;2.13;;;11.50;99.90;;;;;;5025309;28;20044;-79
2022/11/14 09:28:49;;;;;;;5.40;5.15;;;11.50;99.90;;;;;;5005972;28;20033;-76
2022/11/14 09:31:15;;;;;;;0.32;0.32;;;11.70;99.90;;;;;;5005962;28;20930;-75
2022/11/14 09:33:40;;;;;;;3.22;3.08;;;11.80;99.90;;;;;;5024259;28;20089;-76
2022/11/14 09:36:14;;;;;;;2.40;2.30;;;11.80;99.90;;;;;;5010042;28;20021;-85
2022/11/14 09:38:42;;;;;;;3.17;2.95;;;11.90;99.90;;;;;;4984762;28;20029;-83
2022/11/14 09:41:07;;;;;;;1.73;1.67;;;11.90;99.90;;;;;;5011217;28;20049;-76
2022/11/14 09:43:38;;;;;;;29.80;5.70;;;13.20;99.90;;;;;;5014081;28;20081;-77
2022/11/14 09:46:11;;;;;;;2.30;2.20;;;13.90;99.90;;;;;;5016678;28;20018;-86
2022/11/14 09:48:37;;;;;;;1.70;1.63;;;14.70;99.90;;;;;;4986190;28;20034;-85
2022/11/14 09:51:14;;;;;;;3.33;3.20;;;15.10;99.90;;;;;;5000262;28;20042;-78
2022/11/14 09:54:03;;;;;;;2.30;2.20;;;14.90;99.90;;;;;;5000478;28;20650;-78
2022/11/14 09:56:29;;;;;;;1.48;1.38;;;14.60;99.90;;;;;;5000633;28;20145;-77
2022/11/14 09:58:55;;;;;;;3.70;3.53;;;14.50;99.90;;;;;;4998937;28;20231;-77
2022/11/14 10:01:56;;;;;;;3.03;2.83;;;14.40;99.90;;;;;;4999525;28;20022;-78
2022/11/14 10:12:29;;;;;;;1.70;1.60;;;13.50;99.90;;;;;;5325428;23;20052;-86
2022/11/14 10:15:15;;;;;;;2.20;2.10;;;13.60;99.90;;;;;;5022698;28;20046;-82
2022/11/14 10:18:01;;;;;;;5.38;5.07;;;13.60;99.90;;;;;;4983029;28;20022;-78
2022/11/14 10:20:49;;;;;;;11.05;10.05;;;13.50;99.90;;;;;;5006343;28;20014;-79
2022/11/14 10:23:29;;;;;;;1.95;1.85;;;13.60;99.90;;;;;;5006058;28;20052;-77
2022/11/14 10:26:08;;;;;;;1.08;1.08;;;13.50;99.90;;;;;;5020383;28;20002;-76
2022/11/14 10:29:08;;;;;;;1.85;1.75;;;13.40;99.90;;;;;;5023355;28;20013;-84
2022/11/14 10:31:42;;;;;;;2.28;2.17;;;15.10;99.90;;;;;;5008396;28;20081;-77
2022/11/14 10:34:29;;;;;;;4.78;4.45;;;13.40;99.90;;;;;;5027308;28;20025;-77
2022/11/14 10:37:13;;;;;;;1.40;1.40;;;13.50;99.90;;;;;;5027248;28;20018;-76
2022/11/14 10:39:44;;;;;;;9.73;8.77;;;13.50;99.90;;;;;;5020800;28;20033;-76
2022/11/14 10:42:33;;;;;;;11.40;5.90;;;13.70;99.90;;;;;;5024675;28;20022;-76
2022/11/14 10:45:33;;;;;;;2.38;2.28;;;13.90;99.90;;;;;;5020095;28;20037;-76
2022/11/14 10:48:13;;;;;;;1.75;1.65;;;14.00;99.90;;;;;;5025640;28;20745;-77
2022/11/14 10:51:03;;;;;;;2.03;1.92;;;14.00;99.90;;;;;;5028900;28;20030;-76
2022/11/14 10:53:56;;;;;;;8.60;7.97;;;14.10;99.90;;;;;;5027290;28;20105;-82
2022/11/14 10:56:23;;;;;;;1.20;1.20;;;14.20;99.90;;;;;;5011228;28;20022;-76
2022/11/14 10:58:49;;;;;;;8.98;7.57;;;15.70;99.90;;;;;;5028581;28;20018;-78
2022/11/14 11:01:51;;;;;;;1.70;1.60;;;14.60;99.90;;;;;;5028648;28;20022;-90
2022/11/14 11:04:22;;;;;;;1.80;1.73;;;14.90;99.90;;;;;;4965839;29;20031;-78
2022/11/14 11:06:50;;;;;;;4.45;4.07;;;15.20;99.90;;;;;;4958891;28;20036;-82
2022/11/14 11:12:13;;;;;;;7.20;6.57;;;15.60;99.90;;;;;;4966521;29;20129;-79
2022/11/14 11:14:39;;;;;;;1.35;1.25;;;16.00;99.90;;;;;;4959639;29;20039;-89
2022/11/14 11:17:19;;;;;;;5.93;5.32;;;16.40;99.90;;;;;;4961162;29;20090;-86
2022/11/14 11:19:47;;;;;;;4.13;3.72;;;16.90;99.90;;;;;;4943907;29;20198;-87
2022/11/14 11:22:37;;;;;;;4.75;2.70;;;17.10;99.90;;;;;;4943633;29;20030;-94
2022/11/14 11:25:28;;;;;;;10.48;7.45;;;17.40;99.90;;;;;;4940196;28;20019;-89
2022/11/14 11:28:12;;;;;;;1.17;1.13;;;17.90;99.50;;;;;;4911811;29;20122;-86
2022/11/14 11:30:39;;;;;;;4.53;2.28;;;18.00;98.20;;;;;;4945014;29;20070;-88
2022/11/14 11:33:20;;;;;;;3.88;2.33;;;18.00;98.00;;;;;;4942950;28;20692;-88
2022/11/14 11:35:49;;;;;;;0.90;0.85;;;17.50;97.40;;;;;;4943526;29;20053;-85
2022/11/14 11:38:16;;;;;;;5.20;3.33;;;17.40;98.00;;;;;;4911459;29;20031;-83
2022/11/14 11:40:47;;;;;;;1.45;1.40;;;17.30;98.50;;;;;;4996664;28;20282;-77
2022/11/14 11:43:33;;;;;;;4.35;4.05;;;17.00;99.00;;;;;;5010443;28;20018;-81
2022/11/14 11:46:03;;;;;;;10.15;3.58;;;16.70;99.60;;;;;;5015637;28;20025;-94
2022/11/14 11:48:39;;;;;;;3.90;3.60;;;16.50;99.90;;;;;;4997797;28;20700;-78
2022/11/14 11:51:11;;;;;;;1.88;1.75;;;16.30;99.90;;;;;;5020881;28;20025;-95
2022/11/14 11:53:45;;;;;;;0.20;0.20;;;16.20;99.90;;;;;;5016150;28;20026;-77
2022/11/14 11:56:16;;;;;;;1.50;1.40;;;16.20;99.90;;;;;;5005645;28;20223;-89
2022/11/14 11:58:50;;;;;;;1.10;1.10;;;16.30;99.90;;;;;;5006095;28;20053;-79
2022/11/14 12:01:18;;;;;;;0.63;0.63;;;16.40;99.90;;;;;;4992610;28;20026;-74
2022/11/14 12:04:04;;;;;;;3.25;3.05;;;16.60;99.90;;;;;;5011624;28;20026;-78
2022/11/14 12:06:46;;;;;;;0.82;0.82;;;16.60;99.90;;;;;;5008293;28;20109;-93
2022/11/14 12:09:21;;;;;;;5.25;4.95;;;16.70;99.90;;;;;;5014029;28;20013;-84
2022/11/14 12:12:04;;;;;;;38.00;15.00;;;16.70;99.90;;;;;;5018164;28;20050;-86
2022/11/14 12:14:56;;;;;;;7.60;3.85;;;16.70;99.90;;;;;;5024815;28;20030;-78
2022/11/14 12:17:30;;;;;;;6.55;6.15;;;16.60;99.90;;;;;;4993814;28;20034;-95
2022/11/14 12:20:22;;;;;;;2.58;2.47;;;16.30;99.90;;;;;;5011500;28;20073;-83
2022/11/14 12:23:14;;;;;;;3.10;2.47;;;16.20;99.90;;;;;;5011542;28;20012;-82
2022/11/14 12:26:16;;;;;;;6.28;5.93;;;16.00;99.90;;;;;;5037430;28;20010;-79
2022/11/14 12:29:10;;;;;;;4.93;4.60;;;16.00;99.90;;;;;;5031773;28;20014;-76
2022/11/14 12:31:39;;;;;;;0.95;0.95;;;15.70;99.90;;;;;;5033751;28;20791;-77
2022/11/14 12:34:25;;;;;;;2.28;2.20;;;15.70;99.90;;;;;;5014263;28;20014;-77
2022/11/14 12:36:51;;;;;;;2.90;2.70;;;15.60;99.90;;;;;;5018630;28;20045;-78
2022/11/14 12:39:27;;;;;;;9.15;8.25;;;15.50;99.90;;;;;;5031647;28;20041;-81
2022/11/14 12:42:14;;;;;;;1.40;1.08;;;15.40;99.90;;;;;;5006533;28;20029;-77
2022/11/14 12:44:40;;;;;;;5.38;4.85;;;15.40;99.90;;;;;;5004813;28;20049;-76
2022/11/14 12:47:06;;;;;;;2.08;1.98;;;15.20;99.90;;;;;;4986887;28;20033;-76
2022/11/14 12:49:47;;;;;;;2.20;2.05;;;15.20;99.90;;;;;;4985930;28;20569;-75
2022/11/14 12:52:43;;;;;;;2.13;2.03;;;15.20;99.90;;;;;;4987403;28;20050;-75
2022/11/14 12:55:25;;;;;;;6.47;6.03;;;15.20;99.90;;;;;;5004042;28;20030;-76
2022/11/14 13:23:54;;;;;;;1.02;1.02;;;17.90;99.90;;;;;;4995155;28;20037;-77
2022/11/14 13:26:38;;;;;;;2.65;2.45;;;18.00;99.80;;;;;;4934041;29;20066;-78
2022/11/14 13:59:32;;;;;;;3.08;2.88;;;15.90;99.90;;;;;;4946364;27;20047;-77
2022/11/14 14:02:07;;;;;;;1.92;1.83;;;16.60;99.90;;;;;;4970649;29;20042;-78
2022/11/14 14:05:09;;;;;;;23.48;11.60;;;15.80;99.90;;;;;;4961504;23;20055;-76
2022/11/14 14:07:54;;;;;;;1.10;1.08;;;15.70;99.90;;;;;;4943971;29;20115;-77
2022/11/14 14:10:45;;;;;;;3.40;3.20;;;15.50;99.90;;;;;;4948136;28;20378;-80
2022/11/14 14:13:55;;;;;;;10.57;9.23;;;15.90;99.90;;;;;;4952785;28;20011;-77
2022/11/14 14:16:48;;;;;;;1.17;1.17;;;15.40;99.90;;;;;;4947121;29;20086;-76
2022/11/14 14:19:21;;;;;;;7.28;6.78;;;15.30;99.90;;;;;;4935832;29;20023;-76
2022/11/14 14:22:18;;;;;;;8.43;7.55;;;15.30;99.90;;;;;;4928260;29;20032;-77
2022/11/14 14:25:09;;;;;;;5.22;4.93;;;15.20;99.90;;;;;;4946071;29;20024;-77
2022/11/14 14:28:02;;;;;;;0.82;0.82;;;15.20;99.90;;;;;;4944406;29;20036;-76
2022/11/14 14:30:28;;;;;;;1.27;1.23;;;15.20;99.90;;;;;;4924749;29;20290;-76
2022/11/14 14:33:38;;;;;;;8.88;5.25;;;15.10;99.90;;;;;;4923824;29;20490;-79
2022/11/14 14:42:52;;;;;;;6.32;5.95;;;15.00;99.90;;;;;;5433037;23;20035;-79
2022/11/14 14:45:29;;;;;;;4.72;4.35;;;15.00;99.90;;;;;;4945524;29;20038;-81
2022/11/14 14:48:20;;;;;;;2.60;2.50;;;14.90;99.90;;;;;;4947326;29;20036;-76
2022/11/14 14:50:52;;;;;;;7.15;6.60;;;14.80;99.90;;;;;;4948234;29;20093;-77
2022/11/14 14:53:26;;;;;;;2.22;2.13;;;14.80;99.90;;;;;;4942619;29;20067;-77
2022/11/14 14:56:04;;;;;;;2.25;2.15;;;14.70;99.90;;;;;;4974370;23;20051;-78
2022/11/14 14:58:34;;;;;;;2.20;2.05;;;14.50;99.90;;;;;;4986306;23;20041;-79
2022/11/14 15:01:13;;;;;;;2.33;2.22;;;14.20;99.90;;;;;;4964639;28;20094;-78
2022/11/14 15:03:43;;;;;;;20.33;12.93;;;14.40;99.90;;;;;;4968416;29;20034;-77
2022/11/14 15:06:36;;;;;;;16.73;15.52;;;14.40;99.90;;;;;;4974905;28;20032;-77
2022/11/14 15:09:09;;;;;;;9.45;8.55;;;14.30;99.90;;;;;;4949522;29;20019;-90